AKST,Max TemperatureF,Mean TemperatureF,Min TemperatureF,Max Dew PointF,MeanDew PointF,Min DewpointF,Max Humidity, Mean Humidity, Min Humidity, Max Sea Level PressureIn, Mean Sea Level PressureIn, Min Sea Level PressureIn, Max VisibilityMiles, Mean VisibilityMiles, Min VisibilityMiles, Max Wind SpeedMPH, Mean Wind SpeedMPH, Max Gust SpeedMPH,PrecipitationIn, CloudCover, Events, WindDirDegrees
2013-1-1,46,42,37,34,30,21,87,69,37,30.37,30.14,29.96,10,10,8,26,9,45,0.37,5,,117
2013-1-2,39,36,33,34,32,30,87,83,75,30.04,29.91,29.85,10,9,6,20,12,25,0.76,8,,129
2013-1-3,39,36,32,36,32,28,93,86,81,30.04,29.90,29.79,10,8,0,14,6,20,0.35,7,,119
2013-1-4,39,37,35,36,33,30,93,85,70,30.12,30.02,29.90,10,10,8,12,5,,0.04,6,,122
2013-1-5,42,38,35,36,33,30,87,75,61,29.92,29.76,29.67,10,10,10,21,9,29,0.06,7,,106
2013-1-6,41,38,35,34,32,28,87,81,70,29.80,29.71,29.49,10,10,10,12,6,17,0.00,7,,95
2013-1-7,39,36,33,36,33,30,93,85,75,29.80,29.59,29.43,10,9,2,13,6,16,0.24,8,,105
2013-1-8,37,32,28,32,29,25,87,82,75,29.82,29.73,29.64,10,10,10,13,5,17,0.09,5,,131
2013-1-9,32,28,23,27,20,16,86,75,64,30.22,29.94,29.67,10,10,10,14,7,16,0.00,0,,252
2013-1-10,30,27,24,27,21,19,93,78,69,30.32,30.27,30.23,10,10,2,9,5,,0.00,7,,6
2013-1-11,30,29,28,27,24,21,86,82,74,30.33,30.28,30.25,10,9,2,8,4,,0.00,8,,344
2013-1-12,33,30,28,28,25,21,87,81,74,30.45,30.41,30.33,10,10,5,7,2,,0.00,7,,330
2013-1-13,37,34,30,36,33,27,93,88,81,30.44,30.41,30.39,10,6,2,10,4,,0.18,8,,88
2013-1-14,41,39,37,37,37,34,93,91,87,30.44,30.41,30.38,10,6,2,15,7,21,0.34,8,,110
2013-1-15,41,40,39,37,35,34,93,85,76,30.45,30.35,30.29,10,8,2,20,6,25,0.46,8,,138
2013-1-16,42,40,39,37,35,34,93,85,76,30.41,30.24,29.91,10,8,2,21,9,28,0.69,8,,119
2013-1-17,44,42,39,39,37,28,93,82,65,29.99,29.83,29.75,10,7,2,21,11,26,1.25,8,,147
2013-1-18,37,35,33,34,31,28,87,84,70,30.31,30.19,29.99,10,10,10,9,5,,0.00,7,,131
2013-1-19,39,36,33,34,31,28,87,82,70,30.34,30.32,30.30,10,10,10,9,5,,0.00,5,,127
2013-1-20,39,37,35,34,30,28,87,75,65,30.33,30.28,30.23,10,10,10,12,4,,0.00,4,,119
2013-1-21,39,37,35,36,32,30,87,80,75,30.24,30.07,29.87,10,10,10,10,4,,0.00,4,,90
2013-1-22,41,38,35,36,31,28,93,76,65,29.87,29.76,29.69,10,10,7,10,4,,0.23,5,,209
2013-1-23,42,38,35,37,35,32,93,84,70,29.80,29.71,29.67,10,10,9,14,6,20,0.13,8,,109
2013-1-24,44,40,37,36,34,30,87,78,57,29.81,29.61,29.35,10,10,9,25,10,30,0.03,8,,98
2013-1-25,42,40,39,36,34,30,87,77,70,29.66,29.53,29.38,10,10,6,23,14,29,0.15,6,,137
2013-1-26,41,38,35,34,32,28,87,78,65,29.71,29.68,29.65,10,10,6,17,6,22,0.18,8,,180
2013-1-27,35,34,32,30,27,25,87,77,65,29.85,29.79,29.70,10,9,0,14,5,20,0.08,7,,181
2013-1-28,35,27,19,28,19,7,87,70,58,30.19,29.94,29.76,10,9,3,18,9,25,0.03,8,,343
2013-1-29,26,22,17,23,17,9,86,81,63,30.20,30.06,29.97,10,2,1,20,11,23,0.00,8,,22
2013-1-30,32,28,24,28,25,19,93,88,80,30.23,30.14,29.91,10,7,0,8,1,,0.13,8,,320
2013-1-31,39,36,32,36,32,28,93,88,81,30.18,30.02,29.90,10,7,0,9,2,,0.63,8,,40